Time;durP1;ratioP1;P1;durP2;ratioP2;P2;SDS_P1;SDS_P2;PMS_P1;PMS_P2;Temp;Humidity;BMP_temperature;BMP_pressure;BME280_temperature;BME280_humidity;BME280_pressure;Samples;Min_cycle;Max_cycle;Signal;HPM_P1;HPM_P2
2022/07/30 00:01:50;;;;;;;1.15;0.55;;;21.50;58.90;;;;;;5112721;28;20050;-72
2022/07/30 00:04:16;;;;;;;0.80;0.40;;;21.40;59.60;;;;;;5112663;28;20043;-72
2022/07/30 00:06:42;;;;;;;0.90;0.40;;;21.40;58.90;;;;;;5112258;28;20043;-72
2022/07/30 00:09:07;;;;;;;0.82;0.40;;;21.40;58.80;;;;;;5113795;28;20040;-71
2022/07/30 00:11:33;;;;;;;1.85;0.50;;;21.40;58.80;;;;;;5111411;28;20084;-71
2022/07/30 00:13:59;;;;;;;0.88;0.30;;;21.40;58.80;;;;;;5112525;28;20044;-71
2022/07/30 00:16:25;;;;;;;1.85;0.50;;;21.40;58.80;;;;;;5113488;28;20047;-71
2022/07/30 00:18:51;;;;;;;0.82;0.40;;;21.40;58.80;;;;;;5112363;28;20039;-72
2022/07/30 00:21:17;;;;;;;1.38;0.40;;;21.40;58.80;;;;;;5112267;28;20445;-72
2022/07/30 00:23:42;;;;;;;0.50;0.32;;;21.40;58.80;;;;;;5111993;28;20483;-72
2022/07/30 00:26:08;;;;;;;1.48;0.40;;;21.40;58.80;;;;;;5111861;28;20060;-72
2022/07/30 00:28:34;;;;;;;1.00;0.50;;;21.40;58.80;;;;;;5111885;28;20537;-72
2022/07/30 00:31:00;;;;;;;1.13;0.60;;;21.40;58.80;;;;;;5111909;28;20031;-72
2022/07/30 00:33:26;;;;;;;1.02;0.30;;;21.40;58.80;;;;;;5112058;28;20046;-72
2022/07/30 00:35:51;;;;;;;0.68;0.30;;;21.40;58.80;;;;;;5113057;28;20039;-72
2022/07/30 00:38:17;;;;;;;1.10;0.40;;;21.40;58.80;;;;;;5111771;28;20549;-72
2022/07/30 00:40:45;;;;;;;0.82;0.52;;;21.40;58.80;;;;;;5113146;28;20186;-72
2022/07/30 00:43:15;;;;;;;0.68;0.32;;;21.40;58.80;;;;;;5111886;28;20043;-72
2022/07/30 00:45:41;;;;;;;1.38;0.60;;;21.30;58.70;;;;;;5111616;28;20039;-72
2022/07/30 00:48:06;;;;;;;0.90;0.40;;;21.40;58.70;;;;;;5111797;28;20040;-72
2022/07/30 00:50:32;;;;;;;0.98;0.45;;;21.30;58.70;;;;;;5094499;28;20050;-71
2022/07/30 00:52:58;;;;;;;1.80;0.30;;;21.30;59.40;;;;;;5111728;28;20065;-72
2022/07/30 00:55:24;;;;;;;0.70;0.40;;;21.30;58.60;;;;;;5112986;28;20402;-72
2022/07/30 00:57:50;;;;;;;0.70;0.30;;;21.30;58.60;;;;;;5111669;28;20035;-72
2022/07/30 01:00:16;;;;;;;0.80;0.40;;;21.30;58.70;;;;;;5111395;28;20134;-72
2022/07/30 01:02:41;;;;;;;0.77;0.38;;;21.30;58.60;;;;;;5112723;28;20054;-72
2022/07/30 01:05:08;;;;;;;0.82;0.43;;;21.30;58.60;;;;;;5111176;28;20035;-72
2022/07/30 01:07:34;;;;;;;1.02;0.50;;;21.30;58.60;;;;;;5111305;28;20491;-72
2022/07/30 01:10:01;;;;;;;0.98;0.45;;;21.30;58.60;;;;;;5111275;28;20042;-72
2022/07/30 01:12:27;;;;;;;0.88;0.43;;;21.30;58.60;;;;;;5111252;28;20036;-72
2022/07/30 01:14:55;;;;;;;0.90;0.50;;;21.30;58.60;;;;;;5111182;28;20114;-72
2022/07/30 01:17:21;;;;;;;0.98;0.40;;;21.30;58.60;;;;;;5112565;28;20062;-72
2022/07/30 01:19:51;;;;;;;1.48;0.30;;;21.30;58.60;;;;;;5111218;28;20495;-72
2022/07/30 01:22:56;;;;;;;0.65;0.40;;;21.30;58.60;;;;;;5110976;28;20039;-72
2022/07/30 01:25:58;;;;;;;0.93;0.35;;;21.30;58.60;;;;;;5110770;28;20047;-72
2022/07/30 01:28:32;;;;;;;1.77;0.50;;;21.30;58.60;;;;;;5112170;28;20463;-72
2022/07/30 01:31:00;;;;;;;0.70;0.40;;;21.30;58.60;;;;;;5111011;28;20040;-72
2022/07/30 01:33:27;;;;;;;0.63;0.32;;;21.30;58.60;;;;;;5111291;28;20387;-72
2022/07/30 01:35:54;;;;;;;1.55;0.50;;;21.20;58.50;;;;;;5110947;28;20418;-72
2022/07/30 01:38:22;;;;;;;1.08;0.45;;;21.20;58.50;;;;;;5112341;28;20120;-72
2022/07/30 01:40:50;;;;;;;0.70;0.40;;;21.20;58.50;;;;;;5111118;28;20047;-72
2022/07/30 01:43:18;;;;;;;0.90;0.55;;;21.20;58.50;;;;;;5110912;28;20078;-72
2022/07/30 01:45:47;;;;;;;0.77;0.40;;;21.20;58.50;;;;;;5110872;28;20047;-72
2022/07/30 01:48:15;;;;;;;1.02;0.52;;;21.20;58.50;;;;;;5110805;28;20043;-72
2022/07/30 01:50:45;;;;;;;1.42;0.43;;;21.20;58.50;;;;;;5111053;28;20093;-72
2022/07/30 01:53:16;;;;;;;1.35;0.60;;;21.20;58.50;;;;;;5111060;28;20046;-72
2022/07/30 01:55:44;;;;;;;1.42;0.93;;;21.20;58.50;;;;;;5110962;28;20036;-72
2022/07/30 01:58:11;;;;;;;1.23;0.60;;;21.20;58.50;;;;;;5112314;28;20529;-72
2022/07/30 02:00:40;;;;;;;1.55;0.50;;;21.20;58.50;;;;;;5110959;28;20031;-72
2022/07/30 02:03:07;;;;;;;1.08;0.50;;;21.20;58.50;;;;;;5112143;28;20039;-72
2022/07/30 02:05:35;;;;;;;1.63;0.32;;;21.20;58.40;;;;;;5110780;28;20032;-72
2022/07/30 02:11:10;;;;;;;0.70;0.40;;;21.20;58.40;;;;;;5089442;28;20880;-72
2022/07/30 02:13:54;;;;;;;1.52;1.02;;;21.20;58.40;;;;;;5088446;28;20040;-72
2022/07/30 02:16:28;;;;;;;0.85;0.47;;;21.20;58.50;;;;;;5088084;28;20043;-72
2022/07/30 02:19:03;;;;;;;1.10;0.50;;;21.10;58.40;;;;;;5088049;28;20074;-72
2022/07/30 02:21:33;;;;;;;1.17;0.47;;;21.10;58.40;;;;;;5087834;28;20496;-72
2022/07/30 02:24:01;;;;;;;1.50;0.68;;;21.10;59.10;;;;;;5088010;28;20048;-72
2022/07/30 02:26:28;;;;;;;1.17;0.57;;;21.10;58.40;;;;;;5087825;28;20158;-72
2022/07/30 02:28:58;;;;;;;1.27;0.55;;;21.10;58.40;;;;;;5088055;28;20123;-72
2022/07/30 02:31:25;;;;;;;0.87;0.50;;;21.10;58.40;;;;;;5089043;28;20051;-72
2022/07/30 02:33:56;;;;;;;0.90;0.50;;;21.10;58.40;;;;;;5087775;28;20045;-72
2022/07/30 02:36:24;;;;;;;1.83;0.57;;;21.10;58.40;;;;;;5089014;28;20119;-72
2022/07/30 02:38:54;;;;;;;1.02;0.40;;;21.10;58.40;;;;;;5087932;28;20036;-72
2022/07/30 02:41:22;;;;;;;0.60;0.40;;;21.10;58.40;;;;;;5088879;28;20047;-72
2022/07/30 02:43:49;;;;;;;0.90;0.40;;;21.10;58.30;;;;;;5087549;28;20496;-72
2022/07/30 02:46:17;;;;;;;0.68;0.40;;;21.10;58.40;;;;;;5087502;28;20037;-72
2022/07/30 02:48:44;;;;;;;1.50;0.40;;;21.10;58.30;;;;;;5087426;28;20508;-72
2022/07/30 02:51:14;;;;;;;0.77;0.43;;;21.10;58.30;;;;;;5087479;28;20048;-72
2022/07/30 02:53:44;;;;;;;1.10;0.55;;;21.10;58.30;;;;;;5088732;28;20051;-72
2022/07/30 02:56:11;;;;;;;1.77;0.40;;;21.10;58.30;;;;;;5087623;28;20071;-72
2022/07/30 02:58:39;;;;;;;1.77;0.50;;;21.00;58.20;;;;;;5088420;28;20111;-72
2022/07/30 03:01:07;;;;;;;1.58;0.50;;;21.10;58.30;;;;;;5087550;28;20043;-72
2022/07/30 03:03:34;;;;;;;0.85;0.50;;;21.10;58.30;;;;;;5087361;28;20119;-72
2022/07/30 03:06:01;;;;;;;1.58;0.40;;;21.10;58.30;;;;;;5087168;28;20111;-72
2022/07/30 03:08:27;;;;;;;0.75;0.40;;;21.10;58.30;;;;;;5087328;28;20040;-72
2022/07/30 03:10:54;;;;;;;0.90;0.30;;;21.10;58.30;;;;;;5086787;28;20056;-72
2022/07/30 03:13:21;;;;;;;0.80;0.40;;;21.00;58.20;;;;;;5087119;28;20373;-72
2022/07/30 03:15:49;;;;;;;0.70;0.30;;;21.00;58.20;;;;;;5087283;28;20434;-72
2022/07/30 03:18:18;;;;;;;1.02;0.43;;;21.00;58.20;;;;;;5088092;28;20036;-72
2022/07/30 03:20:48;;;;;;;0.77;0.50;;;21.00;58.20;;;;;;5065678;28;20044;-72
2022/07/30 03:23:17;;;;;;;0.93;0.40;;;21.00;58.20;;;;;;5074505;28;20495;-72
2022/07/30 03:25:46;;;;;;;0.60;0.40;;;21.00;58.20;;;;;;5073577;28;20101;-72
2022/07/30 03:28:13;;;;;;;0.63;0.40;;;21.00;58.20;;;;;;5073442;28;20044;-72
2022/07/30 03:30:40;;;;;;;0.65;0.32;;;21.00;58.20;;;;;;5073170;28;20049;-72
2022/07/30 03:33:06;;;;;;;0.70;0.40;;;21.00;58.20;;;;;;5073353;28;20094;-72
2022/07/30 03:35:32;;;;;;;0.70;0.30;;;21.00;58.20;;;;;;5073365;28;20037;-72
2022/07/30 03:37:59;;;;;;;1.23;0.70;;;21.00;58.20;;;;;;5073295;28;20139;-72
2022/07/30 03:40:25;;;;;;;0.80;0.30;;;21.00;58.20;;;;;;5073006;28;20083;-72
2022/07/30 03:42:51;;;;;;;1.00;0.50;;;21.00;58.20;;;;;;5073006;28;20048;-72
2022/07/30 03:45:18;;;;;;;0.70;0.40;;;21.00;58.20;;;;;;5072884;28;20047;-72
2022/07/30 03:47:46;;;;;;;1.05;0.47;;;21.00;58.20;;;;;;5072915;28;20072;-72
2022/07/30 03:50:13;;;;;;;1.40;0.40;;;21.00;58.20;;;;;;5072862;28;20147;-72
2022/07/30 03:52:40;;;;;;;1.08;0.40;;;21.00;58.20;;;;;;5073021;28;20040;-72
2022/07/30 03:55:07;;;;;;;0.70;0.30;;;20.90;58.20;;;;;;5072991;28;20051;-71
2022/07/30 03:57:34;;;;;;;0.65;0.50;;;20.90;58.20;;;;;;5073954;28;20049;-72
2022/07/30 03:59:59;;;;;;;0.70;0.32;;;20.90;58.20;;;;;;5072881;28;20044;-72
2022/07/30 04:02:25;;;;;;;1.65;0.57;;;20.90;58.20;;;;;;5072644;28;20439;-72
2022/07/30 04:04:51;;;;;;;1.27;0.40;;;21.00;58.30;;;;;;5072793;28;20106;-72
2022/07/30 04:07:17;;;;;;;0.80;0.47;;;21.00;58.30;;;;;;5072472;28;20458;-72
2022/07/30 04:09:42;;;;;;;1.33;0.63;;;21.00;58.30;;;;;;5072078;28;20557;-71
2022/07/30 04:12:08;;;;;;;0.90;0.30;;;20.90;58.30;;;;;;5074048;28;20040;-71
2022/07/30 04:14:43;;;;;;;1.92;0.60;;;20.90;58.30;;;;;;5072596;28;20045;-71
2022/07/30 04:17:15;;;;;;;1.15;0.50;;;20.90;58.30;;;;;;5072356;28;20062;-71
2022/07/30 04:19:46;;;;;;;1.40;0.55;;;20.90;58.30;;;;;;5072419;28;20123;-72
2022/07/30 04:22:20;;;;;;;1.67;0.50;;;20.90;58.30;;;;;;5073527;28;20192;-72
2022/07/30 04:24:48;;;;;;;0.70;0.45;;;21.00;58.40;;;;;;5072020;28;20051;-72
2022/07/30 04:27:14;;;;;;;0.93;0.30;;;20.90;58.30;;;;;;5072114;28;20071;-72
2022/07/30 04:29:40;;;;;;;2.08;0.40;;;20.90;58.30;;;;;;5073204;28;20064;-72
2022/07/30 04:32:08;;;;;;;0.60;0.40;;;20.90;58.30;;;;;;5071717;28;20037;-72
2022/07/30 04:34:34;;;;;;;0.60;0.30;;;20.90;58.30;;;;;;5071699;28;20040;-72
2022/07/30 04:37:00;;;;;;;1.75;0.35;;;21.00;58.40;;;;;;5071859;28;20033;-72
2022/07/30 04:39:25;;;;;;;0.75;0.45;;;20.90;58.40;;;;;;5071886;28;20121;-72
2022/07/30 04:41:51;;;;;;;0.55;0.45;;;20.90;58.40;;;;;;5071772;28;20107;-72
2022/07/30 04:44:18;;;;;;;0.63;0.40;;;20.90;58.40;;;;;;5071812;28;20040;-72
2022/07/30 04:46:45;;;;;;;0.60;0.40;;;20.90;58.40;;;;;;5071951;28;20063;-72
2022/07/30 04:49:12;;;;;;;0.95;0.40;;;20.90;58.50;;;;;;5071924;28;20044;-72
2022/07/30 04:51:39;;;;;;;0.90;0.30;;;20.90;58.50;;;;;;5072939;28;20050;-71
2022/07/30 04:54:08;;;;;;;0.88;0.30;;;20.90;58.50;;;;;;5071466;28;20537;-72
2022/07/30 04:56:35;;;;;;;0.80;0.40;;;20.90;58.50;;;;;;5071529;28;20045;-72
2022/07/30 04:59:01;;;;;;;0.50;0.40;;;20.90;58.50;;;;;;5072748;28;20538;-72
2022/07/30 05:01:32;;;;;;;0.75;0.32;;;20.90;58.50;;;;;;5071603;28;20043;-72
2022/07/30 05:04:00;;;;;;;1.73;0.30;;;20.90;58.50;;;;;;5071491;28;20078;-72
2022/07/30 05:06:27;;;;;;;0.60;0.30;;;20.90;58.50;;;;;;5071264;28;20045;-72
2022/07/30 05:08:53;;;;;;;0.65;0.38;;;20.90;58.50;;;;;;5071205;28;20481;-72
2022/07/30 05:11:19;;;;;;;0.90;0.40;;;20.90;58.50;;;;;;5071186;28;20040;-72
2022/07/30 05:13:47;;;;;;;0.75;0.40;;;20.90;58.50;;;;;;5071218;28;20036;-72
2022/07/30 05:16:13;;;;;;;1.08;0.40;;;20.90;58.50;;;;;;5071352;28;20056;-72
2022/07/30 05:18:39;;;;;;;1.23;0.50;;;20.90;58.50;;;;;;5071447;28;20392;-72
2022/07/30 05:21:05;;;;;;;0.68;0.30;;;20.90;58.60;;;;;;5071100;28;20040;-72
2022/07/30 05:23:31;;;;;;;0.63;0.35;;;20.90;58.60;;;;;;5072182;28;20076;-72
2022/07/30 05:25:57;;;;;;;0.80;0.50;;;20.90;58.60;;;;;;5071060;28;20044;-72
2022/07/30 05:28:25;;;;;;;0.57;0.30;;;20.90;58.60;;;;;;5071161;28;20059;-72
2022/07/30 05:30:52;;;;;;;0.70;0.40;;;20.90;58.60;;;;;;5072208;28;20388;-72
2022/07/30 05:33:19;;;;;;;0.80;0.40;;;20.90;58.60;;;;;;5071075;28;20127;-72
2022/07/30 05:35:44;;;;;;;1.30;0.47;;;20.90;58.60;;;;;;5071160;28;20040;-72
2022/07/30 05:38:10;;;;;;;0.65;0.35;;;20.90;58.70;;;;;;5070769;28;20403;-72
2022/07/30 05:40:36;;;;;;;0.63;0.30;;;20.90;58.60;;;;;;5072328;28;20040;-72
2022/07/30 05:43:01;;;;;;;0.55;0.22;;;20.90;58.60;;;;;;5071036;28;20044;-72
2022/07/30 05:45:27;;;;;;;1.10;0.30;;;20.90;58.70;;;;;;5070835;28;20039;-72
2022/07/30 05:47:52;;;;;;;1.33;0.40;;;20.90;58.70;;;;;;5070696;28;20450;-72
2022/07/30 05:50:18;;;;;;;0.80;0.52;;;20.90;58.70;;;;;;5071965;28;20079;-72
2022/07/30 05:52:44;;;;;;;0.60;0.30;;;20.90;58.70;;;;;;5070863;28;20560;-72
2022/07/30 05:55:10;;;;;;;0.50;0.20;;;20.90;58.70;;;;;;5071941;28;20464;-72
2022/07/30 05:57:36;;;;;;;0.70;0.30;;;20.90;58.70;;;;;;5070554;28;20028;-72
2022/07/30 06:00:04;;;;;;;0.55;0.30;;;20.90;58.70;;;;;;5070635;28;20139;-72
2022/07/30 06:02:30;;;;;;;0.57;0.20;;;20.90;58.70;;;;;;5070623;28;20082;-72
2022/07/30 06:04:56;;;;;;;0.88;0.30;;;20.90;58.70;;;;;;5071873;28;20076;-72
2022/07/30 06:07:22;;;;;;;1.05;0.30;;;20.90;58.80;;;;;;5070549;28;20094;-72
2022/07/30 06:09:47;;;;;;;0.80;0.80;;;20.90;58.70;;;;;;5070227;28;20044;-72
2022/07/30 06:12:13;;;;;;;0.40;0.30;;;20.90;58.80;;;;;;5070499;28;20116;-72
2022/07/30 06:14:39;;;;;;;1.13;0.43;;;20.90;58.80;;;;;;5070421;28;20071;-72
2022/07/30 06:17:04;;;;;;;0.73;0.30;;;20.90;58.80;;;;;;5070501;28;20047;-72
2022/07/30 06:19:30;;;;;;;0.77;0.35;;;20.90;58.80;;;;;;5071589;28;20041;-72
2022/07/30 06:21:55;;;;;;;0.73;0.40;;;20.90;58.80;;;;;;5070758;28;20041;-72
2022/07/30 06:24:21;;;;;;;0.75;0.40;;;20.90;58.80;;;;;;5071563;28;20392;-72
2022/07/30 06:26:47;;;;;;;0.60;0.30;;;21.00;58.90;;;;;;5071631;28;20044;-72
2022/07/30 06:29:13;;;;;;;1.13;0.30;;;20.90;58.80;;;;;;5070196;28;20041;-72
2022/07/30 06:31:39;;;;;;;1.58;0.43;;;20.90;58.90;;;;;;5070579;28;20036;-72
2022/07/30 06:34:05;;;;;;;0.50;0.30;;;20.90;58.90;;;;;;5070512;28;20045;-72
2022/07/30 06:36:31;;;;;;;1.17;0.30;;;20.90;58.90;;;;;;5070311;28;20395;-72
2022/07/30 06:38:56;;;;;;;0.57;0.38;;;20.90;59.00;;;;;;5070317;28;20077;-72
2022/07/30 06:41:22;;;;;;;0.80;0.47;;;20.90;59.00;;;;;;5070185;28;20048;-72
2022/07/30 06:43:49;;;;;;;0.60;0.32;;;20.90;58.90;;;;;;5070461;28;20035;-72
2022/07/30 06:46:15;;;;;;;0.60;0.40;;;20.90;59.00;;;;;;5053659;28;20086;-72
2022/07/30 06:48:41;;;;;;;1.27;0.47;;;20.90;59.00;;;;;;5070083;28;20045;-72
2022/07/30 06:51:07;;;;;;;0.40;0.30;;;21.00;59.10;;;;;;5070000;28;20051;-71
2022/07/30 06:53:33;;;;;;;1.10;0.50;;;20.90;59.00;;;;;;5071432;28;20044;-71
2022/07/30 06:55:59;;;;;;;0.70;0.40;;;20.90;59.10;;;;;;5071103;28;20086;-71
2022/07/30 06:58:25;;;;;;;0.90;0.50;;;20.90;59.10;;;;;;5073803;28;20411;-71
2022/07/30 07:00:50;;;;;;;0.82;0.43;;;20.90;59.10;;;;;;5074007;28;20045;-71
2022/07/30 07:03:16;;;;;;;0.60;0.30;;;21.00;59.20;;;;;;5073750;28;20036;-71
2022/07/30 07:05:41;;;;;;;0.60;0.30;;;21.00;59.20;;;;;;5073662;28;20040;-71
2022/07/30 07:08:07;;;;;;;0.82;0.30;;;21.00;59.20;;;;;;5073650;28;20058;-72
2022/07/30 07:10:33;;;;;;;0.80;0.45;;;21.00;59.20;;;;;;5074413;28;20056;-71
2022/07/30 07:12:59;;;;;;;0.47;0.30;;;21.00;59.20;;;;;;5073572;28;20043;-71
2022/07/30 07:15:25;;;;;;;0.73;0.47;;;21.00;59.20;;;;;;5074734;28;20045;-72
2022/07/30 07:17:51;;;;;;;1.15;0.60;;;21.00;59.20;;;;;;5074766;28;20039;-72
2022/07/30 07:20:16;;;;;;;0.80;0.38;;;21.00;59.20;;;;;;5073544;28;20500;-72
2022/07/30 07:22:42;;;;;;;0.82;0.40;;;21.00;59.30;;;;;;5074752;28;20548;-72
2022/07/30 07:25:08;;;;;;;0.70;0.45;;;21.00;59.30;;;;;;5073373;28;20385;-72
2022/07/30 07:27:35;;;;;;;0.93;0.40;;;21.00;59.30;;;;;;5073271;28;20048;-71
2022/07/30 07:30:00;;;;;;;1.60;0.50;;;21.00;59.30;;;;;;5073348;28;20403;-71
2022/07/30 07:32:26;;;;;;;0.70;0.40;;;21.00;59.30;;;;;;5073425;28;20152;-72
2022/07/30 07:34:52;;;;;;;0.77;0.50;;;21.00;59.30;;;;;;5073214;28;20048;-72
2022/07/30 07:37:17;;;;;;;0.95;0.30;;;21.00;59.30;;;;;;5073025;28;20123;-72
2022/07/30 07:39:43;;;;;;;0.75;0.47;;;21.00;59.40;;;;;;5073379;28;20067;-72
2022/07/30 07:42:09;;;;;;;0.80;0.40;;;21.00;59.30;;;;;;5073178;28;20547;-72
2022/07/30 07:44:34;;;;;;;0.82;0.40;;;21.00;59.40;;;;;;5074470;28;20381;-71
2022/07/30 07:47:00;;;;;;;0.50;0.30;;;21.00;59.40;;;;;;5073169;28;20127;-72
2022/07/30 07:49:26;;;;;;;1.10;0.73;;;21.00;59.40;;;;;;5072796;28;20447;-71
2022/07/30 07:51:51;;;;;;;0.70;0.40;;;21.00;59.40;;;;;;5073232;28;20068;-71
2022/07/30 07:54:17;;;;;;;1.52;0.50;;;21.00;59.40;;;;;;5073106;28;20077;-71
2022/07/30 07:56:43;;;;;;;0.93;0.50;;;21.00;59.40;;;;;;5073952;28;20077;-72
2022/07/30 07:59:08;;;;;;;0.98;0.45;;;21.00;59.50;;;;;;5072691;28;20036;-71
2022/07/30 08:01:34;;;;;;;0.55;0.40;;;21.00;59.40;;;;;;5072891;28;20068;-72
2022/07/30 08:03:59;;;;;;;0.80;0.55;;;21.00;59.40;;;;;;5072694;28;20124;-71
2022/07/30 08:06:25;;;;;;;1.83;0.50;;;21.00;59.40;;;;;;5072431;28;20048;-71
2022/07/30 08:08:51;;;;;;;0.60;0.32;;;21.10;59.50;;;;;;5073458;28;20036;-71
2022/07/30 08:11:17;;;;;;;2.13;0.50;;;21.10;59.50;;;;;;5055787;28;20060;-71
2022/07/30 08:13:42;;;;;;;0.45;0.30;;;21.00;59.40;;;;;;5072513;28;20040;-72
2022/07/30 08:16:09;;;;;;;1.70;0.50;;;21.00;59.50;;;;;;5072455;28;20579;-71
2022/07/30 08:18:36;;;;;;;0.85;0.52;;;21.00;59.50;;;;;;5072303;28;20046;-71
2022/07/30 08:21:02;;;;;;;1.73;0.65;;;21.00;59.50;;;;;;5072266;28;20040;-71
2022/07/30 08:23:28;;;;;;;1.35;0.43;;;21.10;59.70;;;;;;5072400;28;20080;-71
2022/07/30 08:25:57;;;;;;;1.75;0.40;;;21.10;59.70;;;;;;5072513;28;20098;-71
2022/07/30 08:28:23;;;;;;;0.70;0.35;;;21.10;59.70;;;;;;5072328;28;20335;-71
2022/07/30 08:30:49;;;;;;;1.30;0.50;;;21.10;59.60;;;;;;5072003;28;20480;-71
2022/07/30 08:33:15;;;;;;;0.63;0.30;;;21.10;59.60;;;;;;5071997;28;20052;-71
2022/07/30 08:35:40;;;;;;;1.70;0.70;;;21.10;59.70;;;;;;5072064;28;20043;-71
2022/07/30 08:38:06;;;;;;;1.73;0.60;;;21.10;59.70;;;;;;5073220;28;20039;-71
2022/07/30 08:40:34;;;;;;;1.95;0.52;;;21.10;59.70;;;;;;5071981;28;20377;-71
2022/07/30 08:43:02;;;;;;;1.83;0.50;;;21.10;59.70;;;;;;5055486;28;20105;-71
2022/07/30 08:45:30;;;;;;;0.70;0.30;;;21.10;59.70;;;;;;5073212;28;20032;-71
2022/07/30 08:47:58;;;;;;;1.25;0.40;;;21.10;59.70;;;;;;5073139;28;20387;-72
2022/07/30 08:50:24;;;;;;;2.15;0.60;;;21.10;59.70;;;;;;5071641;28;20028;-71
2022/07/30 08:52:54;;;;;;;1.27;0.52;;;21.10;59.70;;;;;;5071661;28;20125;-71
2022/07/30 08:55:20;;;;;;;0.90;0.47;;;21.10;59.60;;;;;;5072887;28;20112;-71
2022/07/30 08:57:46;;;;;;;1.35;0.40;;;21.10;59.60;;;;;;5071761;28;20047;-71
2022/07/30 09:00:13;;;;;;;0.80;0.50;;;21.20;59.60;;;;;;5071736;28;20127;-71
2022/07/30 09:02:39;;;;;;;1.40;0.88;;;21.20;59.60;;;;;;5071726;28;20400;-72
2022/07/30 09:05:05;;;;;;;1.45;0.73;;;21.20;59.60;;;;;;5072656;28;20037;-71
2022/07/30 09:07:33;;;;;;;0.68;0.50;;;21.20;59.60;;;;;;5071643;28;20033;-71
2022/07/30 09:09:59;;;;;;;0.80;0.40;;;21.20;59.60;;;;;;5071186;28;20045;-71
2022/07/30 09:12:42;;;;;;;2.17;0.68;;;21.20;59.50;;;;;;5071376;28;20044;-71
2022/07/30 09:15:18;;;;;;;1.60;0.60;;;21.20;59.40;;;;;;5071179;28;20119;-71
2022/07/30 09:17:49;;;;;;;1.42;0.40;;;21.30;59.40;;;;;;5072483;28;20031;-71
2022/07/30 09:20:16;;;;;;;0.77;0.50;;;21.30;59.30;;;;;;5070785;28;20111;-71
2022/07/30 09:22:44;;;;;;;1.02;0.45;;;21.30;59.20;;;;;;5071382;28;20123;-72
2022/07/30 09:25:09;;;;;;;0.90;0.40;;;21.30;59.20;;;;;;5071289;28;20048;-71
2022/07/30 09:27:44;;;;;;;0.98;0.50;;;21.30;59.10;;;;;;5071050;28;20719;-71
2022/07/30 09:30:10;;;;;;;1.05;0.50;;;21.40;59.10;;;;;;5070890;28;20044;-71
2022/07/30 09:32:53;;;;;;;1.02;0.40;;;21.40;59.00;;;;;;5072333;28;20036;-71
2022/07/30 09:35:20;;;;;;;0.82;0.30;;;21.50;58.90;;;;;;5071116;28;20080;-71
2022/07/30 09:37:46;;;;;;;2.40;0.60;;;21.50;58.80;;;;;;5071203;28;20518;-71
2022/07/30 09:40:15;;;;;;;1.10;0.40;;;21.50;58.70;;;;;;5070822;28;20048;-71
2022/07/30 09:42:41;;;;;;;1.35;0.43;;;21.50;58.60;;;;;;5054460;28;20501;-71
2022/07/30 09:45:10;;;;;;;1.52;0.57;;;21.50;58.60;;;;;;5070764;28;20089;-81
2022/07/30 09:47:41;;;;;;;1.73;0.40;;;21.60;58.50;;;;;;5070992;28;20076;-72
2022/07/30 09:52:49;;;;;;;0.60;0.50;;;21.60;58.40;;;;;;5089424;27;20389;-72
2022/07/30 09:55:31;;;;;;;1.38;0.70;;;21.60;58.30;;;;;;5088066;28;20052;-71
2022/07/30 09:58:05;;;;;;;0.90;0.40;;;21.60;58.20;;;;;;5088410;28;20070;-72
2022/07/30 10:00:33;;;;;;;2.30;0.70;;;21.70;58.20;;;;;;5088248;28;20032;-71
2022/07/30 10:03:00;;;;;;;0.57;0.30;;;21.70;58.20;;;;;;5089755;28;20032;-71
2022/07/30 10:05:26;;;;;;;1.60;0.40;;;21.60;58.00;;;;;;5088134;28;20119;-72
2022/07/30 10:07:57;;;;;;;2.30;0.40;;;21.70;58.00;;;;;;5087925;28;20044;-71
2022/07/30 10:10:28;;;;;;;1.20;0.57;;;21.70;58.00;;;;;;5088054;28;20040;-71
2022/07/30 10:12:59;;;;;;;1.75;0.50;;;21.70;57.90;;;;;;5087729;28;20036;-71
2022/07/30 10:15:29;;;;;;;1.35;0.40;;;21.70;58.00;;;;;;5087707;28;20484;-72
2022/07/30 10:17:59;;;;;;;0.98;0.57;;;21.70;57.90;;;;;;5089105;28;20067;-72
2022/07/30 10:20:26;;;;;;;1.02;0.50;;;21.70;57.90;;;;;;5087618;28;20036;-71
2022/07/30 10:22:52;;;;;;;1.10;0.55;;;21.70;57.90;;;;;;5087792;28;20033;-72
2022/07/30 10:25:20;;;;;;;2.83;0.63;;;21.70;57.90;;;;;;5087571;28;20040;-72
2022/07/30 10:27:47;;;;;;;1.38;0.63;;;21.70;57.90;;;;;;5088813;28;20040;-72
2022/07/30 10:30:13;;;;;;;1.95;0.85;;;21.80;57.90;;;;;;5087662;28;20032;-72
2022/07/30 10:32:39;;;;;;;2.35;0.60;;;21.70;57.90;;;;;;5087364;28;20044;-72
2022/07/30 10:35:06;;;;;;;0.70;0.30;;;21.80;57.90;;;;;;5088828;28;20036;-72
2022/07/30 10:37:35;;;;;;;1.00;0.70;;;21.70;57.80;;;;;;5088539;28;20511;-72
2022/07/30 10:48:25;;;;;;;1.95;0.60;;;21.80;57.90;;;;;;5110156;27;20359;-72
2022/07/30 10:50:54;;;;;;;1.23;0.50;;;21.80;57.90;;;;;;5091546;28;20087;-71
2022/07/30 10:53:44;;;;;;;1.17;0.40;;;21.80;57.90;;;;;;5091575;28;20051;-71
2022/07/30 11:04:36;;;;;;;0.95;0.50;;;21.70;57.80;;;;;;5089321;27;20409;-72
2022/07/30 11:10:00;;;;;;;1.08;0.50;;;21.80;57.90;;;;;;5130091;27;20860;-72
2022/07/30 11:15:21;;;;;;;0.98;0.50;;;21.80;57.90;;;;;;5145314;27;1169696;-69
2022/07/30 11:20:41;;;;;;;1.55;0.40;;;21.80;58.10;;;;;;5089027;28;20787;-70
2022/07/30 11:23:11;;;;;;;1.75;0.43;;;21.90;58.80;;;;;;5087636;28;20135;-69
2022/07/30 11:28:37;;;;;;;2.30;0.57;;;22.00;59.00;;;;;;5128244;27;20354;-77
2022/07/30 11:31:04;;;;;;;6.90;0.50;;;22.20;59.50;;;;;;5128206;28;20040;-70
2022/07/30 11:33:30;;;;;;;0.80;0.50;;;22.30;59.20;;;;;;5127968;27;20035;-71
2022/07/30 11:36:11;;;;;;;1.70;0.60;;;22.30;59.20;;;;;;5128926;28;20040;-70
2022/07/30 11:38:54;;;;;;;3.97;0.40;;;22.40;59.30;;;;;;5128383;28;20327;-69
2022/07/30 11:41:20;;;;;;;0.85;0.45;;;22.40;59.20;;;;;;5128925;28;20036;-70
2022/07/30 11:43:46;;;;;;;1.77;0.63;;;22.40;59.10;;;;;;5128633;28;20500;-70
2022/07/30 11:46:14;;;;;;;1.00;0.50;;;22.50;59.10;;;;;;5128918;28;20035;-70
2022/07/30 11:48:43;;;;;;;0.50;0.40;;;22.50;59.00;;;;;;5128199;28;20039;-68
2022/07/30 11:51:09;;;;;;;1.60;0.50;;;22.60;59.00;;;;;;5129283;27;20122;-73
2022/07/30 11:53:35;;;;;;;1.65;0.73;;;22.60;59.00;;;;;;5128521;28;20047;-70
2022/07/30 11:56:02;;;;;;;1.23;0.40;;;22.60;58.90;;;;;;5128453;28;20035;-70
2022/07/30 11:58:31;;;;;;;1.00;0.55;;;22.60;58.90;;;;;;5127828;27;20043;-69
2022/07/30 12:01:00;;;;;;;3.80;0.60;;;22.70;58.80;;;;;;5126419;28;20070;-69
2022/07/30 12:03:30;;;;;;;1.98;0.40;;;22.70;58.80;;;;;;5126738;28;20045;-70
2022/07/30 12:06:05;;;;;;;1.65;0.40;;;22.80;58.90;;;;;;5126759;28;20036;-71
2022/07/30 12:08:41;;;;;;;2.88;0.43;;;22.80;58.70;;;;;;5107746;28;20471;-73
2022/07/30 12:11:07;;;;;;;5.93;0.68;;;22.80;58.60;;;;;;5107666;28;20032;-69
2022/07/30 12:13:33;;;;;;;5.07;0.88;;;22.80;58.50;;;;;;5108992;28;20036;-70
2022/07/30 12:15:58;;;;;;;3.92;0.40;;;22.80;58.50;;;;;;5108751;28;20499;-71
2022/07/30 12:18:29;;;;;;;2.33;0.65;;;22.90;58.50;;;;;;5127291;27;20024;-69
2022/07/30 12:20:59;;;;;;;4.07;0.50;;;22.90;58.50;;;;;;5127754;28;20161;-74
2022/07/30 12:23:25;;;;;;;;;;;22.90;58.50;;;;;;5128667;28;20080;-75
2022/07/30 12:25:51;;;;;;;5.07;0.60;;;22.90;58.20;;;;;;5128678;27;19990;-72
2022/07/30 12:28:20;;;;;;;3.75;0.60;;;22.90;58.30;;;;;;5128096;28;20055;-73
2022/07/30 12:30:46;;;;;;;2.55;0.60;;;22.90;58.20;;;;;;5127573;28;20085;-72
2022/07/30 12:33:12;;;;;;;3.47;1.42;;;23.00;58.30;;;;;;5128576;28;20088;-71
2022/07/30 12:35:54;;;;;;;3.13;0.65;;;23.00;58.20;;;;;;5127497;28;20043;-71
2022/07/30 12:38:22;;;;;;;4.07;0.60;;;23.00;58.00;;;;;;5120474;28;20572;-71
2022/07/30 12:41:04;;;;;;;5.50;0.50;;;23.00;57.90;;;;;;5112937;28;20047;-70
2022/07/30 12:43:51;;;;;;;0.80;0.45;;;23.00;57.80;;;;;;5111434;28;20047;-72
2022/07/30 12:49:00;;;;;;;2.60;0.50;;;23.00;57.90;;;;;;5126958;27;20402;-70
2022/07/30 12:51:31;;;;;;;0.97;0.33;;;23.00;57.80;;;;;;5120571;27;20046;-71
2022/07/30 12:53:58;;;;;;;2.55;0.50;;;23.00;57.80;;;;;;5111160;28;20356;-73
2022/07/30 12:56:26;;;;;;;2.22;0.50;;;23.00;57.90;;;;;;5114304;28;20027;-73
2022/07/30 12:58:53;;;;;;;3.30;0.45;;;23.10;58.00;;;;;;5110074;28;20445;-77
2022/07/30 13:01:38;;;;;;;4.82;0.73;;;23.00;57.90;;;;;;5119361;28;20123;-77
2022/07/30 13:04:05;;;;;;;2.97;0.45;;;23.00;57.70;;;;;;5128924;28;20047;-77
2022/07/30 13:06:30;;;;;;;2.40;0.43;;;22.90;57.80;;;;;;5129527;27;20393;-77
2022/07/30 13:08:58;;;;;;;1.55;0.57;;;22.90;57.90;;;;;;5128713;28;20042;-77
2022/07/30 13:11:26;;;;;;;3.78;0.52;;;22.90;57.90;;;;;;5128668;28;20040;-77
2022/07/30 13:13:52;;;;;;;3.30;0.40;;;22.80;57.90;;;;;;5129733;27;20100;-76
2022/07/30 13:16:19;;;;;;;2.08;0.32;;;22.70;57.90;;;;;;5128599;28;20039;-77
2022/07/30 13:18:46;;;;;;;2.42;0.40;;;22.70;58.00;;;;;;5111513;28;20117;-77
2022/07/30 13:21:11;;;;;;;1.02;0.45;;;22.70;58.00;;;;;;5113690;28;20554;-77
2022/07/30 13:23:39;;;;;;;4.13;0.50;;;22.60;58.00;;;;;;5125244;28;20039;-77
2022/07/30 13:26:07;;;;;;;0.90;0.30;;;22.70;58.10;;;;;;5107910;28;20058;-77
2022/07/30 13:28:34;;;;;;;2.90;0.40;;;22.60;58.10;;;;;;5107587;28;20118;-77